createdAt,value
2018-09-17T00:01:56.018Z,7.57
2018-09-17T00:04:24.101Z,6.80
2018-09-17T00:06:52.198Z,6.40
2018-09-17T00:09:20.272Z,7.00
2018-09-17T00:11:48.366Z,7.70
2018-09-17T00:14:16.458Z,7.50
2018-09-17T00:16:44.550Z,7.17
2018-09-17T00:19:12.623Z,6.70
2018-09-17T00:21:40.926Z,6.43
2018-09-17T00:24:09.006Z,7.40
2018-09-17T00:26:37.103Z,6.53
2018-09-17T00:29:05.318Z,7.03
2018-09-17T00:31:33.421Z,7.00
2018-09-17T00:34:01.503Z,7.20
2018-09-17T00:36:29.591Z,7.43
2018-09-17T00:38:57.696Z,6.53
2018-09-17T00:41:25.781Z,6.97
2018-09-17T00:43:53.869Z,7.63
2018-09-17T00:46:21.962Z,8.77
2018-09-17T00:48:50.038Z,7.50
2018-09-17T00:51:18.622Z,6.93
2018-09-17T00:53:46.696Z,6.93
2018-09-17T00:56:14.791Z,7.70
2018-09-17T00:58:42.858Z,7.20
2018-09-17T01:01:10.963Z,7.50
2018-09-17T01:03:39.049Z,5.97
2018-09-17T01:06:07.146Z,6.70
2018-09-17T01:08:35.230Z,6.60
2018-09-17T01:11:03.321Z,7.80
2018-09-17T01:13:31.409Z,7.10
2018-09-17T01:15:59.509Z,7.10
2018-09-17T01:18:27.592Z,8.00
2018-09-17T01:20:55.686Z,7.53
2018-09-17T01:23:23.771Z,8.03
2018-09-17T01:25:51.846Z,7.13
2018-09-17T01:28:19.925Z,7.00
2018-09-17T01:30:48.241Z,7.30
2018-09-17T01:33:16.537Z,6.93
2018-09-17T01:35:44.625Z,7.50
2018-09-17T01:38:12.706Z,8.10
2018-09-17T01:40:40.802Z,7.47
2018-09-17T01:43:08.877Z,6.70
2018-09-17T01:45:36.957Z,8.20
2018-09-17T01:48:05.062Z,7.57
2018-09-17T01:50:33.149Z,7.10
2018-09-17T01:53:01.237Z,7.30
2018-09-17T01:55:29.322Z,7.40
2018-09-17T01:57:57.406Z,6.30
2018-09-17T02:00:25.490Z,7.60
2018-09-17T02:02:53.585Z,7.50
2018-09-17T02:05:21.658Z,8.00
2018-09-17T02:07:49.745Z,7.73
2018-09-17T02:10:17.830Z,7.80
2018-09-17T02:12:45.918Z,7.30
2018-09-17T02:15:14.004Z,8.03
2018-09-17T02:17:42.099Z,8.40
2018-09-17T02:20:10.182Z,8.60
2018-09-17T02:22:38.270Z,8.27
2018-09-17T02:25:06.382Z,8.50
2018-09-17T02:27:34.492Z,9.23
2018-09-17T02:30:02.570Z,8.77
2018-09-17T02:32:30.662Z,8.10
2018-09-17T02:34:58.742Z,7.90
2018-09-17T02:37:26.837Z,7.70
2018-09-17T02:39:54.920Z,8.30
2018-09-17T02:42:23.010Z,8.27
2018-09-17T02:44:51.094Z,8.67
2018-09-17T02:47:19.190Z,8.00
2018-09-17T02:49:47.274Z,7.67
2018-09-17T02:52:15.371Z,7.40
2018-09-17T02:54:43.451Z,7.13
2018-09-17T02:57:11.558Z,7.90
2018-09-17T02:59:39.638Z,7.70
2018-09-17T03:02:07.726Z,7.20
2018-09-17T03:04:35.819Z,7.33
2018-09-17T03:07:03.907Z,8.17
2018-09-17T03:09:32.010Z,7.70
2018-09-17T03:12:00.122Z,8.43
2018-09-17T03:14:28.758Z,8.13
2018-09-17T03:17:09.824Z,7.90
2018-09-17T03:19:38.010Z,8.23
2018-09-17T03:22:06.114Z,7.30
2018-09-17T03:24:34.226Z,7.67
2018-09-17T03:27:02.291Z,8.20
2018-09-17T03:29:30.390Z,8.33
2018-09-17T03:31:58.498Z,7.57
2018-09-17T03:34:26.742Z,8.70
2018-09-17T03:36:54.826Z,8.17
2018-09-17T03:39:22.919Z,7.33
2018-09-17T03:41:50.994Z,8.63
2018-09-17T03:44:19.092Z,7.83
2018-09-17T03:46:47.331Z,8.40
2018-09-17T03:49:15.262Z,7.97
2018-09-17T03:51:43.357Z,8.70
2018-09-17T03:54:11.461Z,9.37
2018-09-17T03:56:39.540Z,8.70
2018-09-17T03:59:07.634Z,8.90
2018-09-17T04:01:35.725Z,8.77
2018-09-17T04:04:03.813Z,8.47
2018-09-17T04:06:31.897Z,8.23
2018-09-17T04:08:59.982Z,8.13
2018-09-17T04:11:28.074Z,8.50
2018-09-17T04:13:56.174Z,9.03
2018-09-17T04:16:24.258Z,8.60
2018-09-17T04:18:52.342Z,8.13
2018-09-17T04:21:20.419Z,8.83
2018-09-17T04:23:48.505Z,9.00
2018-09-17T04:26:16.585Z,8.97
2018-09-17T04:28:44.687Z,9.13
2018-09-17T04:31:12.770Z,8.70
2018-09-17T04:33:41.988Z,9.50
2018-09-17T04:36:10.865Z,9.07
2018-09-17T04:38:38.962Z,8.37
2018-09-17T04:41:07.054Z,7.53
2018-09-17T04:43:35.145Z,7.60
2018-09-17T04:46:03.242Z,8.60
2018-09-17T04:48:31.325Z,7.93
2018-09-17T04:50:59.454Z,8.23
2018-09-17T04:53:27.542Z,8.43
2018-09-17T04:55:55.634Z,8.67
2018-09-17T04:58:23.710Z,8.93
2018-09-17T05:00:51.801Z,8.73
2018-09-17T05:03:19.889Z,8.30
2018-09-17T05:05:47.990Z,7.73
2018-09-17T05:08:16.088Z,7.87
2018-09-17T05:10:44.186Z,8.57
2018-09-17T05:13:12.299Z,9.20
2018-09-17T05:15:40.368Z,8.30
2018-09-17T05:18:08.462Z,8.23
2018-09-17T05:20:36.604Z,8.27
2018-09-17T05:23:04.639Z,7.90
2018-09-17T05:25:32.734Z,8.70
2018-09-17T05:28:00.831Z,8.60
2018-09-17T05:30:28.930Z,9.27
2018-09-17T05:32:57.058Z,8.80
2018-09-17T05:35:25.152Z,8.40
2018-09-17T05:37:54.563Z,9.07
2018-09-17T05:40:22.678Z,8.70
2018-09-17T05:42:50.766Z,9.30
2018-09-17T05:45:19.090Z,9.37
2018-09-17T05:47:47.191Z,9.77
2018-09-17T05:50:15.278Z,10.73
2018-09-17T05:52:43.369Z,11.00
2018-09-17T05:55:11.466Z,9.83
2018-09-17T05:57:39.554Z,9.20
2018-09-17T06:00:07.925Z,9.60
2018-09-17T06:02:36.022Z,10.60
2018-09-17T06:05:05.031Z,10.03
2018-09-17T06:07:33.126Z,10.10
2018-09-17T06:10:01.218Z,9.57
2018-09-17T06:12:29.322Z,9.60
2018-09-17T06:14:57.414Z,10.80
2018-09-17T06:17:25.596Z,10.37
2018-09-17T06:19:53.616Z,12.40
2018-09-17T06:22:21.714Z,10.33
2018-09-17T06:24:49.802Z,10.83
2018-09-17T06:27:17.898Z,10.90
2018-09-17T06:29:46.208Z,10.60
2018-09-17T06:32:14.294Z,9.70
2018-09-17T06:34:42.390Z,9.83
2018-09-17T06:37:10.483Z,9.90
2018-09-17T06:39:38.578Z,10.50
2018-09-17T06:42:06.690Z,8.70
2018-09-17T06:44:34.793Z,10.37
2018-09-17T06:47:02.862Z,9.37
2018-09-17T06:49:30.962Z,11.40
2018-09-17T06:51:59.054Z,12.40
2018-09-17T06:54:27.158Z,12.07
2018-09-17T06:56:55.257Z,11.80
2018-09-17T06:59:23.358Z,15.83
2018-09-17T07:01:51.462Z,13.93
2018-09-17T07:04:19.554Z,14.77
2018-09-17T07:06:47.642Z,15.40
2018-09-17T07:09:15.737Z,15.00
2018-09-17T07:11:43.826Z,14.20
2018-09-17T07:14:11.938Z,14.40
2018-09-17T07:16:40.022Z,13.93
2018-09-17T07:19:08.142Z,13.17
2018-09-17T07:21:36.248Z,13.50
2018-09-17T07:24:04.338Z,14.47
2018-09-17T07:26:32.435Z,14.07
2018-09-17T07:29:01.238Z,15.83
2018-09-17T07:31:29.502Z,15.27
2018-09-17T07:33:57.789Z,15.33
2018-09-17T07:36:25.967Z,14.40
2018-09-17T07:38:54.010Z,17.70
2018-09-17T07:41:22.134Z,18.30
2018-09-17T07:43:50.201Z,18.63
2018-09-17T07:46:18.305Z,17.67
2018-09-17T07:48:46.407Z,18.00
2018-09-17T07:51:14.686Z,17.80
2018-09-17T07:53:42.777Z,17.40
2018-09-17T07:56:10.957Z,16.53
2018-09-17T07:58:39.055Z,17.20
2018-09-17T08:01:07.142Z,18.03
2018-09-17T08:03:35.237Z,18.07
2018-09-17T08:06:03.363Z,17.40
2018-09-17T08:08:31.802Z,17.10
2018-09-17T08:10:59.954Z,17.63
2018-09-17T08:13:28.053Z,17.10
2018-09-17T08:15:56.146Z,18.70
2018-09-17T08:18:24.238Z,17.77
2018-09-17T08:20:52.330Z,16.17
2018-09-17T08:23:20.417Z,17.37
2018-09-17T08:25:48.510Z,15.80
2018-09-17T08:28:16.603Z,14.50
2018-09-17T08:30:44.702Z,13.63
2018-09-17T08:33:12.792Z,14.17
2018-09-17T08:35:40.890Z,14.10
2018-09-17T08:38:08.979Z,14.27
2018-09-17T08:40:37.062Z,16.10
2018-09-17T08:43:05.155Z,15.87
2018-09-17T08:45:33.270Z,15.37
2018-09-17T08:48:01.334Z,15.43
2018-09-17T08:50:29.430Z,14.93
2018-09-17T08:52:57.557Z,14.20
2018-09-17T08:55:31.052Z,14.17
2018-09-17T08:58:04.359Z,15.00
2018-09-17T09:00:37.806Z,16.30
2018-09-17T09:03:11.238Z,16.37
2018-09-17T09:05:40.258Z,17.63
2018-09-17T09:08:08.870Z,15.17
2018-09-17T09:10:47.658Z,15.63
2018-09-17T09:13:19.522Z,15.00
2018-09-17T09:15:47.670Z,15.20
2018-09-17T09:18:15.770Z,14.73
2018-09-17T09:20:43.863Z,16.77
2018-09-17T09:23:11.984Z,16.37
2018-09-17T09:25:40.092Z,16.07
2018-09-17T09:28:08.182Z,15.93
2018-09-17T09:30:36.298Z,15.10
2018-09-17T09:33:04.386Z,15.10
2018-09-17T09:35:32.490Z,14.63
2018-09-17T09:38:00.572Z,14.30
2018-09-17T09:40:28.670Z,12.90
2018-09-17T09:42:56.771Z,14.07
2018-09-17T09:45:24.877Z,14.47
2018-09-17T09:47:52.962Z,12.13
2018-09-17T09:50:21.067Z,13.43
2018-09-17T09:52:49.215Z,13.10
2018-09-17T09:55:17.369Z,12.40
2018-09-17T09:57:45.462Z,12.10
2018-09-17T10:00:18.880Z,10.50
2018-09-17T10:02:51.980Z,12.40
2018-09-17T10:05:20.678Z,9.90
2018-09-17T10:07:48.968Z,11.57
2018-09-17T10:10:22.390Z,10.57
2018-09-17T10:12:55.896Z,10.63
2018-09-17T10:15:30.078Z,9.60
2018-09-17T10:18:03.753Z,10.70
2018-09-17T10:20:31.854Z,10.13
2018-09-17T10:22:59.954Z,9.50
2018-09-17T10:25:28.041Z,9.43
2018-09-17T10:27:56.145Z,10.87
2018-09-17T10:30:24.242Z,9.90
2018-09-17T10:32:52.346Z,10.67
2018-09-17T10:35:20.506Z,10.10
2018-09-17T10:37:48.592Z,9.27
2018-09-17T10:40:16.682Z,9.00
2018-09-17T10:42:44.830Z,8.20
2018-09-17T10:45:12.922Z,8.90
2018-09-17T10:47:41.022Z,8.93
2018-09-17T10:50:09.106Z,7.43
2018-09-17T10:52:37.274Z,8.83
2018-09-17T10:55:05.362Z,8.80
2018-09-17T10:57:33.459Z,8.10
2018-09-17T11:00:01.560Z,9.80
2018-09-17T11:02:29.666Z,7.07
2018-09-17T11:04:57.746Z,7.03
2018-09-17T11:07:25.840Z,6.80
2018-09-17T11:09:53.913Z,6.37
2018-09-17T11:12:22.002Z,6.07
2018-09-17T11:14:50.090Z,6.33
2018-09-17T11:17:18.195Z,6.50
2018-09-17T11:19:46.258Z,6.40
2018-09-17T11:22:14.341Z,6.73
2018-09-17T11:24:42.422Z,6.93
2018-09-17T11:27:10.502Z,6.93
2018-09-17T11:29:38.604Z,6.20
2018-09-17T11:32:06.678Z,6.13
2018-09-17T11:34:34.777Z,6.90
2018-09-17T11:37:02.855Z,5.90
2018-09-17T11:39:30.937Z,6.60
2018-09-17T11:41:59.018Z,6.20
2018-09-17T11:44:27.090Z,6.10
2018-09-17T11:46:55.174Z,6.23
2018-09-17T11:49:23.277Z,7.00
2018-09-17T11:51:51.358Z,5.97
2018-09-17T11:54:19.450Z,5.90
2018-09-17T11:56:47.538Z,5.90
2018-09-17T11:59:15.624Z,6.10
2018-09-17T12:01:49.106Z,5.70
2018-09-17T12:04:21.390Z,5.80
2018-09-17T12:06:54.987Z,5.30
2018-09-17T12:09:23.102Z,5.07
2018-09-17T12:11:51.221Z,5.77
2018-09-17T12:14:19.324Z,4.70
2018-09-17T12:16:47.405Z,5.17
2018-09-17T12:19:15.486Z,5.10
2018-09-17T12:21:43.589Z,5.10
2018-09-17T12:24:11.685Z,4.93
2018-09-17T12:26:39.766Z,4.53
2018-09-17T12:29:07.863Z,5.07
2018-09-17T12:31:35.942Z,5.63
2018-09-17T12:34:04.031Z,4.63
2018-09-17T12:36:32.275Z,4.60
2018-09-17T12:39:00.350Z,5.10
2018-09-17T12:41:28.430Z,4.50
2018-09-17T12:43:56.528Z,5.23
2018-09-17T12:46:25.018Z,4.90
2018-09-17T12:48:53.149Z,6.03
2018-09-17T12:51:21.236Z,4.40
2018-09-17T12:53:49.310Z,4.67
2018-09-17T12:56:17.392Z,4.80
2018-09-17T12:58:45.476Z,4.10
2018-09-17T13:01:13.572Z,4.47
2018-09-17T13:03:41.650Z,4.40
2018-09-17T13:06:09.731Z,3.93
2018-09-17T13:08:37.925Z,4.00
2018-09-17T13:11:06.037Z,4.07
2018-09-17T13:13:34.110Z,4.80
2018-09-17T13:16:02.209Z,4.57
2018-09-17T13:18:30.281Z,4.70
2018-09-17T13:20:58.374Z,4.40
2018-09-17T13:23:26.470Z,4.30
2018-09-17T13:25:54.574Z,4.63
2018-09-17T13:28:22.661Z,4.30
2018-09-17T13:30:50.757Z,4.80
2018-09-17T13:33:18.854Z,4.53
2018-09-17T13:35:46.924Z,3.93
2018-09-17T13:38:15.016Z,4.60
2018-09-17T13:40:43.102Z,4.25
2018-09-17T13:43:11.203Z,4.40
2018-09-17T13:45:39.340Z,4.40
2018-09-17T13:48:07.428Z,4.00
2018-09-17T13:50:35.530Z,4.40
2018-09-17T13:53:03.684Z,4.60
2018-09-17T13:55:31.760Z,4.50
2018-09-17T13:57:59.839Z,4.60
2018-09-17T14:00:27.939Z,4.47
2018-09-17T14:02:56.006Z,4.20
2018-09-17T14:05:24.085Z,4.23
2018-09-17T14:07:52.187Z,4.20
2018-09-17T14:10:20.332Z,4.03
2018-09-17T14:12:48.385Z,4.40
2018-09-17T14:15:16.487Z,4.80
2018-09-17T14:17:44.564Z,3.90
2018-09-17T14:20:12.652Z,4.70
2018-09-17T14:22:40.730Z,3.90
2018-09-17T14:25:08.802Z,4.50
2018-09-17T14:27:36.898Z,4.30
2018-09-17T14:30:05.088Z,4.33
2018-09-17T14:32:38.743Z,4.10
2018-09-17T14:35:06.745Z,4.17
2018-09-17T14:37:34.829Z,4.10
2018-09-17T14:40:02.911Z,4.10
2018-09-17T14:42:31.002Z,4.00
2018-09-17T14:44:59.104Z,3.80
2018-09-17T14:47:27.171Z,4.33
2018-09-17T14:49:55.277Z,4.20
2018-09-17T14:52:23.470Z,4.13
2018-09-17T14:54:51.411Z,4.60
2018-09-17T14:57:19.510Z,4.57
2018-09-17T14:59:47.590Z,4.00
2018-09-17T15:02:15.682Z,4.60
2018-09-17T15:04:43.762Z,4.80
2018-09-17T15:07:11.870Z,5.17
2018-09-17T15:09:39.955Z,3.90
2018-09-17T15:12:08.037Z,3.90
2018-09-17T15:14:36.140Z,4.03
2018-09-17T15:17:04.211Z,4.33
2018-09-17T15:19:32.319Z,4.40
2018-09-17T15:22:00.737Z,4.13
2018-09-17T15:24:28.820Z,3.73
2018-09-17T15:26:56.892Z,3.63
2018-09-17T15:29:25.024Z,3.50
2018-09-17T15:31:53.099Z,3.83
2018-09-17T15:34:21.236Z,4.13
2018-09-17T15:36:49.250Z,4.27
2018-09-17T15:39:17.363Z,4.00
2018-09-17T15:41:45.443Z,4.00
2018-09-17T15:44:13.591Z,3.80
2018-09-17T15:46:41.661Z,4.17
2018-09-17T15:49:09.734Z,3.90
2018-09-17T15:51:37.830Z,4.17
2018-09-17T15:54:05.933Z,4.33
2018-09-17T15:56:34.003Z,4.33
2018-09-17T15:59:02.262Z,4.93
2018-09-17T16:01:30.345Z,4.20
2018-09-17T16:03:59.170Z,4.20
2018-09-17T16:06:27.254Z,3.90
2018-09-17T16:08:55.338Z,3.70
2018-09-17T16:11:23.422Z,3.80
2018-09-17T16:13:51.514Z,4.20
2018-09-17T16:16:19.590Z,4.70
2018-09-17T16:18:47.682Z,4.80
2018-09-17T16:21:15.758Z,3.80
2018-09-17T16:23:43.846Z,4.47
2018-09-17T16:26:11.945Z,4.17
2018-09-17T16:28:40.046Z,4.27
2018-09-17T16:31:08.968Z,4.63
2018-09-17T16:33:37.473Z,4.10
2018-09-17T16:36:05.493Z,4.03
2018-09-17T16:38:33.569Z,3.83
2018-09-17T16:41:01.655Z,4.20
2018-09-17T16:43:29.735Z,3.90
2018-09-17T16:45:57.962Z,4.10
2018-09-17T16:48:26.038Z,4.10
2018-09-17T16:50:54.117Z,4.23
2018-09-17T16:53:22.321Z,4.20
2018-09-17T16:55:50.330Z,3.83
2018-09-17T16:58:18.411Z,4.20
2018-09-17T17:00:46.495Z,4.50
2018-09-17T17:03:14.570Z,3.87
2018-09-17T17:05:42.662Z,5.00
2018-09-17T17:08:10.734Z,4.53
2018-09-17T17:10:38.836Z,4.17
2018-09-17T17:13:06.917Z,4.57
2018-09-17T17:15:35.002Z,4.33
2018-09-17T17:18:03.090Z,4.10
2018-09-17T17:20:31.169Z,4.57
2018-09-17T17:23:00.071Z,4.10
2018-09-17T17:25:28.154Z,4.53
2018-09-17T17:27:56.296Z,4.57
2018-09-17T17:30:24.352Z,4.70
2018-09-17T17:32:52.434Z,5.17
2018-09-17T17:35:20.581Z,4.70
2018-09-17T17:37:48.654Z,4.90
2018-09-17T17:40:16.819Z,4.60
2018-09-17T17:42:44.835Z,4.53
2018-09-17T17:45:12.930Z,4.70
2018-09-17T17:47:41.010Z,4.33
2018-09-17T17:50:09.085Z,5.07
2018-09-17T17:52:37.186Z,4.30
2018-09-17T17:55:05.570Z,5.73
2018-09-17T17:57:33.671Z,4.50
2018-09-17T18:00:01.754Z,4.57
2018-09-17T18:02:29.860Z,4.30
2018-09-17T18:04:57.938Z,4.70
2018-09-17T18:07:26.237Z,4.57
2018-09-17T18:09:54.323Z,4.60
2018-09-17T18:12:22.419Z,5.03
2018-09-17T18:14:50.582Z,5.03
2018-09-17T18:17:18.594Z,5.53
2018-09-17T18:19:46.682Z,5.20
2018-09-17T18:22:14.762Z,5.57
2018-09-17T18:24:42.849Z,5.80
2018-09-17T18:27:10.953Z,7.33
2018-09-17T18:29:39.174Z,5.10
2018-09-17T18:32:07.265Z,5.17
2018-09-17T18:34:35.342Z,5.20
2018-09-17T18:37:03.426Z,5.07
2018-09-17T18:39:31.601Z,4.90
2018-09-17T18:41:59.609Z,5.47
2018-09-17T18:44:27.684Z,4.67
2018-09-17T18:46:55.782Z,5.90
2018-09-17T18:49:23.857Z,5.17
2018-09-17T18:51:51.938Z,5.20
2018-09-17T18:54:20.048Z,4.83
2018-09-17T18:56:48.134Z,5.73
2018-09-17T18:59:16.178Z,5.93
2018-09-17T19:01:44.257Z,5.40
2018-09-17T19:04:12.374Z,5.23
2018-09-17T19:06:40.466Z,5.50
2018-09-17T19:09:08.958Z,4.87
2018-09-17T19:11:37.162Z,5.17
2018-09-17T19:14:10.586Z,4.53
2018-09-17T19:16:44.098Z,5.13
2018-09-17T19:19:12.184Z,5.60
2018-09-17T19:21:45.741Z,5.10
2018-09-17T19:24:13.697Z,4.87
2018-09-17T19:26:41.846Z,5.20
2018-09-17T19:29:16.866Z,5.27
2018-09-17T19:31:45.156Z,4.30
2018-09-17T19:34:13.253Z,5.47
2018-09-17T19:36:41.290Z,5.40
2018-09-17T19:39:14.914Z,4.67
2018-09-17T19:41:43.322Z,4.90
2018-09-17T19:44:11.548Z,6.03
2018-09-17T19:46:39.614Z,5.10
2018-09-17T19:49:07.875Z,5.20
2018-09-17T19:51:41.391Z,5.77
2018-09-17T19:54:09.715Z,5.40
2018-09-17T19:56:37.742Z,5.10
2018-09-17T19:59:11.161Z,5.60
2018-09-17T20:01:39.247Z,4.80
2018-09-17T20:04:12.963Z,5.50
2018-09-17T20:06:41.050Z,5.20
2018-09-17T20:09:10.056Z,5.40
2018-09-17T20:11:38.636Z,5.20
2018-09-17T20:14:06.814Z,5.73
2018-09-17T20:16:34.891Z,5.63
2018-09-17T20:19:02.977Z,5.73
2018-09-17T20:21:31.062Z,5.60
2018-09-17T20:23:59.189Z,7.03
2018-09-17T20:26:27.443Z,6.13
2018-09-17T20:28:55.518Z,5.70
2018-09-17T20:31:23.606Z,5.50
2018-09-17T20:33:51.693Z,6.20
2018-09-17T20:36:19.778Z,5.67
2018-09-17T20:38:48.009Z,6.10
2018-09-17T20:41:15.966Z,5.10
2018-09-17T20:43:44.053Z,6.53
2018-09-17T20:46:12.142Z,15.93
2018-09-17T20:48:40.266Z,18.27
2018-09-17T20:51:08.325Z,17.87
2018-09-17T20:53:36.423Z,11.87
2018-09-17T20:56:04.561Z,10.87
2018-09-17T20:58:32.638Z,7.37
2018-09-17T21:01:00.867Z,8.13
2018-09-17T21:03:28.818Z,7.93
2018-09-17T21:05:56.907Z,7.87
2018-09-17T21:08:25.038Z,6.90
2018-09-17T21:10:53.130Z,7.20
2018-09-17T21:13:21.227Z,7.03
2018-09-17T21:15:49.294Z,7.00
2018-09-17T21:18:17.414Z,6.40
2018-09-17T21:20:45.491Z,7.00
2018-09-17T21:23:13.578Z,7.10
2018-09-17T21:25:41.666Z,6.60
2018-09-17T21:28:09.763Z,6.37
2018-09-17T21:30:37.870Z,7.17
2018-09-17T21:33:05.977Z,7.60
2018-09-17T21:35:34.062Z,6.53
2018-09-17T21:38:02.138Z,7.20
2018-09-17T21:40:30.231Z,7.33
2018-09-17T21:42:58.416Z,8.60
2018-09-17T21:45:26.625Z,7.47
2018-09-17T21:47:54.693Z,6.53
2018-09-17T21:50:22.778Z,6.70
2018-09-17T21:52:50.862Z,6.73
2018-09-17T21:55:19.138Z,6.60
2018-09-17T21:57:47.226Z,7.20
2018-09-17T22:00:15.315Z,7.27
2018-09-17T22:02:43.474Z,6.93
2018-09-17T22:05:11.634Z,7.07
2018-09-17T22:07:39.750Z,6.40
2018-09-17T22:10:08.255Z,6.47
2018-09-17T22:12:36.544Z,6.47
2018-09-17T22:15:05.399Z,5.83
2018-09-17T22:17:33.999Z,6.50
2018-09-17T22:20:02.502Z,6.60
2018-09-17T22:22:30.595Z,6.33
2018-09-17T22:24:58.726Z,6.60
2018-09-17T22:27:26.807Z,6.30
2018-09-17T22:29:54.909Z,6.53
2018-09-17T22:32:22.997Z,6.50
2018-09-17T22:34:51.103Z,6.17
2018-09-17T22:37:19.190Z,6.07
2018-09-17T22:39:47.274Z,6.60
2018-09-17T22:42:15.411Z,6.70
2018-09-17T22:44:43.820Z,8.67
2018-09-17T22:47:11.904Z,7.43
2018-09-17T22:49:39.978Z,8.83
2018-09-17T22:52:08.130Z,7.57
2018-09-17T22:54:36.205Z,7.97
2018-09-17T22:57:04.305Z,6.83
2018-09-17T22:59:32.389Z,7.10
2018-09-17T23:02:00.477Z,8.33
2018-09-17T23:04:28.557Z,8.17
2018-09-17T23:06:56.650Z,7.67
2018-09-17T23:09:24.734Z,7.73
2018-09-17T23:11:52.830Z,7.13
2018-09-17T23:14:20.916Z,6.80
2018-09-17T23:16:49.008Z,7.87
2018-09-17T23:19:17.098Z,7.30
2018-09-17T23:21:45.189Z,6.53
2018-09-17T23:24:13.265Z,6.50
2018-09-17T23:26:41.515Z,7.40
2018-09-17T23:29:09.579Z,7.13
2018-09-17T23:31:37.694Z,6.57
2018-09-17T23:34:05.773Z,7.10
2018-09-17T23:36:33.874Z,7.77
2018-09-17T23:39:01.963Z,6.70
2018-09-17T23:41:30.067Z,7.20
2018-09-17T23:43:58.570Z,6.70
2018-09-17T23:46:26.670Z,6.67
2018-09-17T23:48:54.749Z,6.63
2018-09-17T23:51:23.053Z,6.80
2018-09-17T23:53:51.142Z,7.13
2018-09-17T23:56:19.225Z,6.33
2018-09-17T23:58:47.333Z,7.97
